Time;durP1;ratioP1;P1;durP2;ratioP2;P2;SDS_P1;SDS_P2;PMS_P1;PMS_P2;Temp;Humidity;BMP_temperature;BMP_pressure;BME280_temperature;BME280_humidity;BME280_pressure;Samples;Min_cycle;Max_cycle;Signal;HPM_P1;HPM_P2
2021/09/08 00:01:59;;;;;;;10.43;6.43;;;12.80;99.90;12.90;101318.00;;;;4955232;28;117771;-68
2021/09/08 00:04:26;;;;;;;10.17;5.47;;;12.80;99.90;12.80;101323.00;;;;4962979;28;117505;-67
2021/09/08 00:06:52;;;;;;;6.37;5.23;;;12.80;99.90;12.80;101316.00;;;;4959207;28;88843;-67
2021/09/08 00:09:18;;;;;;;10.07;6.67;;;12.80;99.90;12.80;101313.00;;;;4959154;28;108099;-65
2021/09/08 00:11:45;;;;;;;7.97;5.40;;;12.80;99.90;12.80;101306.00;;;;4956188;28;99624;-65
2021/09/08 00:14:10;;;;;;;11.23;5.90;;;12.70;99.90;12.70;101300.00;;;;4954485;28;87943;-65
2021/09/08 00:16:36;;;;;;;10.90;6.33;;;12.70;99.90;12.70;101301.00;;;;4956971;28;110677;-65
2021/09/08 00:19:02;;;;;;;11.87;7.17;;;12.70;99.90;12.70;101301.00;;;;4959998;28;103498;-67
2021/09/08 00:21:27;;;;;;;9.37;6.53;;;12.70;99.90;12.60;101311.00;;;;4958290;28;90640;-67
2021/09/08 00:23:53;;;;;;;8.43;6.17;;;12.60;99.90;12.60;101306.00;;;;4955978;28;117574;-67
2021/09/08 00:26:19;;;;;;;8.33;6.57;;;12.60;99.90;12.60;101305.00;;;;4953616;28;87885;-67
2021/09/08 00:28:44;;;;;;;8.83;6.37;;;12.50;99.90;12.50;101313.00;;;;4955003;28;108380;-67
2021/09/08 00:31:10;;;;;;;7.20;5.53;;;12.50;99.90;12.50;101310.00;;;;4954050;28;88788;-67
2021/09/08 00:33:36;;;;;;;8.83;5.90;;;12.50;99.90;12.40;101311.00;;;;4958604;28;116339;-67
2021/09/08 00:36:01;;;;;;;12.53;6.27;;;12.50;99.90;12.40;101310.00;;;;4955399;28;108219;-67
2021/09/08 00:38:27;;;;;;;7.90;5.70;;;12.40;99.90;12.40;101320.00;;;;4954244;28;87829;-67
2021/09/08 00:40:56;;;;;;;9.10;6.40;;;12.40;99.90;12.30;101311.00;;;;4952099;28;118726;-67
2021/09/08 00:43:23;;;;;;;7.00;5.33;;;12.30;99.90;12.30;101307.00;;;;4958094;28;88600;-67
2021/09/08 00:45:54;;;;;;;7.47;5.13;;;12.30;99.90;12.30;101310.00;;;;4954196;28;109525;-67
2021/09/08 00:48:20;;;;;;;10.37;5.67;;;12.30;99.90;12.20;101307.00;;;;4955783;28;87342;-68
2021/09/08 00:50:47;;;;;;;7.07;5.13;;;12.20;99.90;12.20;101305.00;;;;4953345;28;88068;-67
2021/09/08 00:53:17;;;;;;;8.63;5.17;;;12.20;99.90;12.20;101306.00;;;;4961786;28;88298;-66
2021/09/08 00:55:46;;;;;;;6.37;5.33;;;12.20;99.90;12.20;101299.00;;;;4954085;28;88618;-68
2021/09/08 00:58:12;;;;;;;7.47;5.30;;;12.20;99.90;12.10;101298.00;;;;4952420;28;92496;-68
2021/09/08 01:00:39;;;;;;;10.57;6.17;;;12.10;99.90;12.10;101306.00;;;;4953082;28;107515;-67
2021/09/08 01:03:04;;;;;;;8.80;5.53;;;12.10;99.90;12.10;101301.00;;;;4962985;28;103222;-67
2021/09/08 01:05:31;;;;;;;10.27;4.83;;;12.10;99.90;12.10;101306.00;;;;4955195;28;110272;-67
2021/09/08 01:07:56;;;;;;;6.50;5.13;;;12.10;99.90;12.00;101309.00;;;;4960266;28;89880;-67
2021/09/08 01:10:26;;;;;;;9.63;5.97;;;12.10;99.90;12.00;101316.00;;;;4952832;28;88291;-66
2021/09/08 01:12:52;;;;;;;8.67;5.70;;;12.00;99.90;12.00;101318.00;;;;4952435;28;88267;-66
2021/09/08 01:15:18;;;;;;;9.80;6.20;;;12.00;99.90;12.00;101306.00;;;;4964210;28;87606;-66
2021/09/08 01:17:45;;;;;;;8.10;5.43;;;12.00;99.90;12.00;101308.00;;;;4957731;28;109422;-67
2021/09/08 01:20:16;;;;;;;7.90;5.63;;;12.00;99.90;12.00;101306.00;;;;4951022;28;88846;-67
2021/09/08 01:22:54;;;;;;;7.53;5.47;;;12.00;99.90;11.90;101302.00;;;;4958885;28;88910;-67
2021/09/08 01:25:23;;;;;;;12.83;6.80;;;11.90;99.90;11.90;101300.00;;;;4955415;28;88129;-66
2021/09/08 01:27:52;;;;;;;9.97;5.33;;;11.90;99.90;11.80;101306.00;;;;4956901;28;87636;-67
2021/09/08 01:30:21;;;;;;;8.40;6.43;;;11.90;99.90;11.80;101306.00;;;;4961475;28;92216;-66
2021/09/08 01:32:48;;;;;;;11.07;5.43;;;11.80;99.90;11.80;101298.00;;;;4955362;28;100122;-66
2021/09/08 01:35:18;;;;;;;6.40;5.27;;;11.80;99.90;11.80;101294.00;;;;4955918;28;87787;-66
2021/09/08 01:37:46;;;;;;;9.10;5.80;;;11.80;99.90;11.70;101297.00;;;;4954723;28;87057;-67
2021/09/08 01:40:13;;;;;;;9.33;5.53;;;11.70;99.90;11.70;101288.00;;;;4952285;28;87923;-66
2021/09/08 01:42:39;;;;;;;8.10;4.67;;;11.70;99.90;11.70;101291.00;;;;4953678;28;87882;-67
2021/09/08 01:45:05;;;;;;;8.60;5.83;;;11.70;99.90;11.70;101285.00;;;;4956541;28;109579;-66
2021/09/08 01:47:31;;;;;;;8.40;5.30;;;11.70;99.90;11.70;101282.00;;;;4952095;28;87792;-67
2021/09/08 01:49:56;;;;;;;7.53;5.53;;;11.70;99.90;11.70;101280.00;;;;4953785;28;117866;-66
2021/09/08 01:52:23;;;;;;;10.47;5.80;;;11.60;99.90;11.70;101285.00;;;;4953502;28;87874;-66
2021/09/08 01:54:48;;;;;;;9.40;5.43;;;11.60;99.90;11.60;101278.00;;;;4953716;28;87936;-66
2021/09/08 01:57:14;;;;;;;7.43;5.60;;;11.60;99.90;11.60;101278.00;;;;4957060;28;110005;-67
2021/09/08 01:59:40;;;;;;;8.23;4.93;;;11.60;99.90;11.60;101293.00;;;;4951270;28;118052;-67
2021/09/08 02:02:05;;;;;;;6.90;5.07;;;11.60;99.90;11.60;101294.00;;;;4930671;28;116789;-67
2021/09/08 02:04:31;;;;;;;9.73;5.73;;;11.70;99.90;11.50;101282.00;;;;4964386;28;88141;-66
2021/09/08 02:06:57;;;;;;;8.80;5.47;;;11.50;99.90;11.50;101278.00;;;;4951579;28;108518;-65
2021/09/08 02:09:22;;;;;;;7.43;5.53;;;11.50;99.90;11.40;101273.00;;;;4946428;28;118669;-66
2021/09/08 02:11:48;;;;;;;8.60;5.73;;;11.50;99.90;11.40;101280.00;;;;4952957;28;117906;-66
2021/09/08 02:14:14;;;;;;;8.13;5.50;;;11.40;99.90;11.40;101285.00;;;;4955543;28;109916;-66
2021/09/08 02:16:40;;;;;;;7.20;5.53;;;11.40;99.90;11.40;101277.00;;;;4952767;28;87768;-66
2021/09/08 02:19:06;;;;;;;8.03;4.40;;;11.40;99.90;11.40;101282.00;;;;4953161;28;87919;-66
2021/09/08 02:21:32;;;;;;;7.80;5.90;;;11.40;99.90;11.30;101276.00;;;;4952487;28;90289;-66
2021/09/08 02:23:57;;;;;;;9.53;5.50;;;11.30;99.90;11.30;101284.00;;;;4936579;28;111354;-66
2021/09/08 02:26:23;;;;;;;5.70;4.37;;;11.30;99.90;11.30;101275.00;;;;4949627;28;86870;-66
2021/09/08 02:28:49;;;;;;;7.07;5.23;;;11.30;99.90;11.30;101275.00;;;;4945637;28;118288;-66
2021/09/08 02:31:15;;;;;;;7.53;4.93;;;11.30;99.90;11.30;101278.00;;;;4948034;28;117789;-65
2021/09/08 02:33:41;;;;;;;11.07;5.50;;;11.30;99.90;11.20;101269.00;;;;4948785;28;89291;-67
2021/09/08 02:36:08;;;;;;;11.07;5.87;;;11.30;99.90;11.20;101267.00;;;;4948594;28;87825;-66
2021/09/08 02:38:34;;;;;;;6.07;4.73;;;11.20;99.90;11.20;101266.00;;;;4948829;28;88796;-66
2021/09/08 02:41:06;;;;;;;12.47;6.10;;;11.20;99.90;11.10;101263.00;;;;4948120;28;117896;-66
2021/09/08 02:43:36;;;;;;;9.07;5.17;;;11.20;99.90;11.10;101274.00;;;;4947660;28;87664;-66
2021/09/08 02:46:03;;;;;;;7.00;5.37;;;11.10;99.90;11.10;101272.00;;;;4953832;28;87692;-66
2021/09/08 02:48:30;;;;;;;7.20;5.40;;;11.10;99.90;11.00;101267.00;;;;4950435;28;88232;-65
2021/09/08 02:50:57;;;;;;;11.77;6.03;;;11.00;99.90;11.00;101265.00;;;;4954610;28;88938;-66
2021/09/08 02:53:23;;;;;;;5.53;4.73;;;11.10;99.90;10.90;101266.00;;;;4943539;28;94579;-66
2021/09/08 02:55:48;;;;;;;8.37;5.57;;;11.00;99.90;10.90;101264.00;;;;4953786;28;108532;-66
2021/09/08 02:58:14;;;;;;;8.30;4.93;;;10.90;99.90;10.90;101260.00;;;;4948177;28;119046;-66
2021/09/08 03:00:40;;;;;;;6.33;5.23;;;10.90;99.90;10.90;101265.00;;;;4954828;28;89647;-67
2021/09/08 03:03:05;;;;;;;7.43;4.83;;;10.90;99.90;10.90;101270.00;;;;4951855;28;110293;-66
2021/09/08 03:05:31;;;;;;;8.27;4.90;;;10.90;99.90;10.80;101260.00;;;;4954608;28;108847;-66
2021/09/08 03:07:57;;;;;;;8.67;5.87;;;10.90;99.90;10.80;101265.00;;;;4945724;28;99552;-66
2021/09/08 03:10:23;;;;;;;8.27;5.90;;;10.80;99.90;10.70;101255.00;;;;4952840;28;88241;-66
2021/09/08 03:12:48;;;;;;;5.40;4.63;;;10.80;99.90;10.70;101250.00;;;;4950862;28;109999;-66
2021/09/08 03:15:14;;;;;;;7.53;5.40;;;10.70;99.90;10.70;101252.00;;;;4949315;28;97051;-66
2021/09/08 03:17:40;;;;;;;8.07;5.67;;;10.70;99.90;10.70;101255.00;;;;4952423;28;87732;-66
2021/09/08 03:20:06;;;;;;;11.00;5.57;;;10.70;99.90;10.60;101253.00;;;;4944357;28;98314;-67
2021/09/08 03:22:32;;;;;;;9.03;5.77;;;10.70;99.90;10.60;101249.00;;;;4954983;28;88897;-66
2021/09/08 03:24:58;;;;;;;8.17;5.23;;;10.60;99.90;10.60;101259.00;;;;4959169;28;87815;-67
2021/09/08 03:27:24;;;;;;;8.97;5.63;;;10.60;99.90;10.60;101250.00;;;;4953706;28;117885;-67
2021/09/08 03:29:50;;;;;;;8.60;5.20;;;10.60;99.90;10.60;101250.00;;;;4959857;28;116735;-66
2021/09/08 03:32:15;;;;;;;8.83;4.90;;;10.60;99.90;10.60;101250.00;;;;4954738;28;87665;-66
2021/09/08 03:34:41;;;;;;;7.60;5.13;;;10.60;99.90;10.60;101244.00;;;;4964074;28;87495;-66
2021/09/08 03:37:07;;;;;;;9.47;5.27;;;10.60;99.90;10.50;101249.00;;;;4952428;28;87908;-66
2021/09/08 03:39:33;;;;;;;7.17;4.97;;;10.60;99.90;10.50;101241.00;;;;4962016;28;117391;-66
2021/09/08 03:41:58;;;;;;;6.27;4.70;;;10.60;99.90;10.50;101237.00;;;;4953557;28;110576;-67
2021/09/08 03:44:24;;;;;;;10.33;5.57;;;10.50;99.90;10.50;101245.00;;;;4964448;28;107987;-65
2021/09/08 03:46:49;;;;;;;6.70;4.20;;;10.50;99.90;10.50;101238.00;;;;4967229;28;118618;-65
2021/09/08 03:49:15;;;;;;;8.77;4.70;;;10.50;99.90;10.40;101247.00;;;;4952411;28;119229;-65
2021/09/08 03:51:41;;;;;;;6.37;5.10;;;10.50;99.90;10.40;101249.00;;;;4953989;28;88158;-65
2021/09/08 03:54:07;;;;;;;8.30;4.43;;;10.50;99.90;10.40;101245.00;;;;4960969;28;87619;-65
2021/09/08 03:56:32;;;;;;;7.63;5.73;;;10.50;99.90;10.40;101246.00;;;;4958686;28;118447;-65
2021/09/08 03:58:58;;;;;;;8.83;5.37;;;10.50;99.90;10.40;101234.00;;;;4953841;28;112626;-66
2021/09/08 04:01:23;;;;;;;7.10;4.57;;;10.50;99.90;10.40;101238.00;;;;4960464;28;110693;-66
2021/09/08 04:03:49;;;;;;;7.67;4.77;;;10.50;99.90;10.40;101236.00;;;;4959382;28;107252;-66
2021/09/08 04:06:15;;;;;;;7.87;5.10;;;10.50;99.90;10.40;101235.00;;;;4952864;28;118610;-66
2021/09/08 04:08:41;;;;;;;9.03;5.70;;;10.50;99.90;10.40;101245.00;;;;4953195;28;88493;-66
2021/09/08 04:11:07;;;;;;;7.63;5.40;;;10.40;99.90;10.40;101240.00;;;;4953188;28;110569;-66
2021/09/08 04:13:36;;;;;;;8.70;5.10;;;10.40;99.90;10.40;101231.00;;;;4961220;28;108590;-65
2021/09/08 04:16:01;;;;;;;6.20;4.90;;;10.40;99.90;10.40;101235.00;;;;4953202;28;102019;-66
2021/09/08 04:18:27;;;;;;;6.17;4.93;;;10.40;99.90;10.30;101240.00;;;;4955490;28;117447;-66
2021/09/08 04:20:53;;;;;;;7.80;5.93;;;10.40;99.90;10.30;101236.00;;;;4955885;28;105357;-66
2021/09/08 04:23:18;;;;;;;8.93;5.77;;;10.40;99.90;10.30;101241.00;;;;4959516;28;109852;-66
2021/09/08 04:25:44;;;;;;;8.20;5.03;;;10.30;99.90;10.30;101235.00;;;;4955669;28;117103;-66
2021/09/08 04:28:10;;;;;;;14.90;6.00;;;10.30;99.90;10.20;101234.00;;;;4957624;28;117713;-66
2021/09/08 04:30:35;;;;;;;6.20;5.17;;;10.30;99.90;10.20;101227.00;;;;4953831;28;87812;-66
2021/09/08 04:33:01;;;;;;;13.93;7.43;;;10.30;99.90;10.20;101227.00;;;;4953160;28;108823;-65
2021/09/08 04:35:27;;;;;;;8.23;5.57;;;10.30;99.90;10.20;101228.00;;;;4955236;28;118264;-67
2021/09/08 04:37:52;;;;;;;7.50;4.43;;;10.20;99.90;10.20;101217.00;;;;4955406;28;117846;-67
2021/09/08 04:40:18;;;;;;;7.67;5.40;;;10.20;99.90;10.20;101214.00;;;;4953324;28;109238;-67
2021/09/08 04:42:44;;;;;;;6.43;4.83;;;10.20;99.90;10.20;101212.00;;;;4957129;28;100393;-67
2021/09/08 04:45:10;;;;;;;6.80;4.97;;;10.20;99.90;10.20;101219.00;;;;4957605;28;117083;-67
2021/09/08 04:47:36;;;;;;;8.37;5.83;;;10.20;99.90;10.20;101210.00;;;;4952957;28;106205;-67
2021/09/08 04:50:02;;;;;;;6.50;4.73;;;10.20;99.90;10.20;101206.00;;;;4957110;28;88023;-67
2021/09/08 04:52:30;;;;;;;7.83;5.07;;;10.20;99.90;10.20;101212.00;;;;4954690;28;87298;-66
2021/09/08 04:54:56;;;;;;;9.97;6.37;;;10.20;99.90;10.20;101202.00;;;;4955127;28;88109;-67
2021/09/08 04:57:22;;;;;;;10.23;5.57;;;10.20;99.90;10.20;101204.00;;;;4952504;28;101762;-67
2021/09/08 04:59:48;;;;;;;9.70;5.70;;;10.30;99.90;10.30;101209.00;;;;4957575;28;109913;-67
2021/09/08 05:02:13;;;;;;;9.67;5.50;;;10.30;99.90;10.30;101222.00;;;;4951287;28;87758;-67
2021/09/08 05:04:39;;;;;;;9.07;5.50;;;10.30;99.90;10.30;101208.00;;;;4954292;28;118712;-67
2021/09/08 05:07:05;;;;;;;7.43;5.13;;;10.30;99.90;10.30;101209.00;;;;4955664;28;102563;-67
2021/09/08 05:09:31;;;;;;;10.57;5.53;;;10.30;99.90;10.40;101211.00;;;;4965506;28;90982;-67
2021/09/08 05:11:56;;;;;;;12.40;6.10;;;10.40;99.90;10.40;101219.00;;;;4954266;28;103188;-67
2021/09/08 05:14:22;;;;;;;8.80;4.80;;;10.40;99.90;10.50;101219.00;;;;4958780;28;90215;-67
2021/09/08 05:16:48;;;;;;;8.13;5.10;;;10.40;99.90;10.60;101215.00;;;;4955391;28;98040;-68
2021/09/08 05:19:13;;;;;;;8.70;5.60;;;10.50;99.90;10.70;101217.00;;;;4953267;28;95127;-67
2021/09/08 05:21:39;;;;;;;8.43;5.80;;;10.60;99.90;10.90;101221.00;;;;4961018;28;88041;-68
2021/09/08 05:24:05;;;;;;;9.10;5.77;;;11.20;99.90;11.00;101229.00;;;;4954575;28;118174;-67
2021/09/08 05:26:31;;;;;;;7.07;5.77;;;10.90;99.90;11.10;101229.00;;;;4952701;28;118264;-67
2021/09/08 05:28:56;;;;;;;10.20;6.20;;;11.10;99.90;11.20;101230.00;;;;4937177;28;109373;-67
2021/09/08 05:31:22;;;;;;;8.20;5.67;;;11.20;99.90;11.30;101227.00;;;;4955687;28;88216;-67
2021/09/08 05:33:48;;;;;;;7.93;5.47;;;11.30;99.90;11.40;101230.00;;;;4956256;28;118253;-66
2021/09/08 05:36:15;;;;;;;6.87;5.67;;;11.30;99.90;11.50;101230.00;;;;4951489;28;118218;-66
2021/09/08 05:38:42;;;;;;;10.60;6.43;;;11.50;99.90;11.70;101233.00;;;;4955384;28;87699;-66
2021/09/08 05:41:10;;;;;;;8.67;7.13;;;11.60;99.90;11.80;101231.00;;;;4955187;28;87928;-67
2021/09/08 05:43:36;;;;;;;9.80;6.70;;;11.70;99.90;11.90;101230.00;;;;4960408;28;88769;-66
2021/09/08 05:46:02;;;;;;;11.87;7.57;;;11.80;99.90;12.00;101225.00;;;;4956608;28;101652;-66
2021/09/08 05:48:28;;;;;;;9.47;6.50;;;11.90;99.90;12.10;101238.00;;;;4955090;28;93826;-66
2021/09/08 05:50:54;;;;;;;12.50;6.77;;;12.00;99.90;12.30;101239.00;;;;4957984;28;90469;-66
2021/09/08 05:53:20;;;;;;;8.10;6.40;;;12.20;99.90;12.50;101248.00;;;;4950449;28;119014;-66
2021/09/08 05:55:46;;;;;;;6.30;5.00;;;12.40;99.90;12.80;101236.00;;;;4953084;28;87983;-67
2021/09/08 05:58:11;;;;;;;9.47;5.97;;;12.60;99.90;13.10;101238.00;;;;4955206;28;87932;-67
2021/09/08 06:00:37;;;;;;;8.07;5.43;;;12.80;99.90;13.40;101232.00;;;;4952342;28;108391;-66
2021/09/08 06:03:03;;;;;;;8.23;6.10;;;13.10;99.90;13.70;101235.00;;;;4960874;28;119022;-67
2021/09/08 06:05:28;;;;;;;15.07;6.53;;;13.40;99.90;13.90;101237.00;;;;4960718;28;117279;-66
2021/09/08 06:07:54;;;;;;;7.70;6.03;;;13.70;99.90;14.20;101232.00;;;;4958162;28;111359;-67
2021/09/08 06:10:22;;;;;;;12.93;6.70;;;13.90;99.90;14.50;101236.00;;;;4956336;28;104975;-66
2021/09/08 06:12:49;;;;;;;9.20;5.63;;;14.30;99.90;14.80;101234.00;;;;4955191;28;88841;-67
2021/09/08 06:15:20;;;;;;;8.93;6.67;;;14.50;99.90;15.10;101242.00;;;;4961520;28;117697;-67
2021/09/08 06:17:46;;;;;;;7.47;5.93;;;14.90;99.90;15.30;101243.00;;;;4967143;28;87824;-65
2021/09/08 06:20:12;;;;;;;10.90;5.88;;;15.00;99.90;15.60;101244.00;;;;4958443;28;88299;-67
2021/09/08 06:22:38;;;;;;;8.63;6.25;;;15.30;99.90;15.80;101241.00;;;;4961885;28;99767;-66
2021/09/08 06:25:05;;;;;;;8.82;6.13;;;15.60;99.90;16.10;101238.00;;;;4955924;28;98400;-65
2021/09/08 06:27:31;;;;;;;6.18;4.70;;;15.90;99.90;16.30;101243.00;;;;4955373;28;87809;-65
2021/09/08 06:29:57;;;;;;;6.38;5.05;;;16.10;99.90;16.60;101240.00;;;;4973336;28;87379;-65
2021/09/08 06:32:23;;;;;;;8.75;5.10;;;16.40;99.90;16.90;101240.00;;;;4953973;28;100790;-67
2021/09/08 06:34:48;;;;;;;7.47;4.40;;;16.60;99.90;17.10;101240.00;;;;4957667;28;87809;-66
2021/09/08 06:37:15;;;;;;;7.65;4.72;;;16.90;99.90;17.40;101242.00;;;;4958357;28;89100;-66
2021/09/08 06:39:41;;;;;;;8.90;5.45;;;17.10;99.90;17.60;101247.00;;;;4961969;28;88042;-66
2021/09/08 06:42:07;;;;;;;9.18;5.60;;;17.30;99.90;17.80;101235.00;;;;4955079;28;88131;-66
2021/09/08 06:44:33;;;;;;;13.15;5.03;;;17.60;99.90;18.00;101250.00;;;;4960202;28;88066;-66
2021/09/08 06:46:58;;;;;;;7.07;5.22;;;17.90;99.90;18.20;101241.00;;;;4955066;28;109456;-66
2021/09/08 06:49:24;;;;;;;8.70;5.28;;;17.90;99.90;18.40;101244.00;;;;4948977;28;109078;-67
2021/09/08 06:51:50;;;;;;;6.80;5.28;;;18.30;99.90;18.60;101241.00;;;;4966834;28;118084;-71
2021/09/08 06:54:16;;;;;;;6.85;4.68;;;18.30;99.90;18.80;101243.00;;;;4959319;28;87671;-71
2021/09/08 06:56:42;;;;;;;4.53;4.03;;;18.60;99.90;19.10;101242.00;;;;4955289;28;88197;-70
2021/09/08 06:59:08;;;;;;;9.10;5.40;;;18.80;99.90;19.30;101247.00;;;;4962957;28;87999;-70
2021/09/08 07:01:34;;;;;;;6.93;4.65;;;19.00;99.90;19.60;101254.00;;;;4957100;28;118362;-69
2021/09/08 07:04:00;;;;;;;6.80;5.05;;;19.30;99.90;20.00;101241.00;;;;4957542;28;117756;-69
2021/09/08 07:06:26;;;;;;;7.13;4.65;;;19.70;99.90;20.30;101250.00;;;;4963074;28;110596;-69
2021/09/08 07:08:53;;;;;;;6.82;4.43;;;19.90;99.90;20.60;101240.00;;;;4957152;28;87844;-69
2021/09/08 07:11:20;;;;;;;11.55;4.85;;;20.20;99.90;20.80;101244.00;;;;4954064;28;89347;-70
2021/09/08 07:13:47;;;;;;;8.73;5.22;;;20.50;99.90;21.00;101248.00;;;;4958916;28;101614;-71
2021/09/08 07:16:14;;;;;;;8.48;4.68;;;20.70;99.90;21.20;101240.00;;;;4936901;28;87873;-69
2021/09/08 07:18:40;;;;;;;7.18;4.95;;;20.90;99.90;21.40;101246.00;;;;4958648;28;89090;-71
2021/09/08 07:21:06;;;;;;;7.43;3.75;;;21.10;99.90;21.60;101249.00;;;;4951626;28;117592;-69
2021/09/08 07:23:32;;;;;;;8.52;4.18;;;21.30;99.90;21.80;101245.00;;;;4959448;28;91523;-69
2021/09/08 07:25:58;;;;;;;7.82;4.93;;;21.50;99.90;21.90;101248.00;;;;4952368;28;88670;-71
2021/09/08 07:28:24;;;;;;;7.78;4.55;;;21.70;99.90;22.10;101250.00;;;;4957139;28;87803;-69
2021/09/08 07:30:53;;;;;;;7.88;4.85;;;21.80;99.70;22.30;101245.00;;;;4956104;28;93060;-69
2021/09/08 07:33:28;;;;;;;4.85;3.83;;;22.00;98.60;22.40;101234.00;;;;4956657;28;88312;-69
2021/09/08 07:35:53;;;;;;;5.90;4.10;;;22.10;97.80;22.50;101238.00;;;;4959346;28;87690;-69
2021/09/08 07:38:20;;;;;;;6.57;5.05;;;22.20;97.10;22.70;101232.00;;;;4957745;28;88306;-70
2021/09/08 07:40:46;;;;;;;5.10;3.95;;;22.40;96.40;22.80;101234.00;;;;4961976;28;88090;-68
2021/09/08 07:43:12;;;;;;;8.10;4.95;;;22.50;94.50;22.80;101232.00;;;;4958751;28;118501;-69
2021/09/08 07:45:38;;;;;;;6.32;5.00;;;22.40;94.50;23.00;101231.00;;;;4963434;28;88571;-70
2021/09/08 07:48:04;;;;;;;7.18;4.78;;;22.60;94.80;23.20;101234.00;;;;4954190;28;90861;-69
2021/09/08 07:50:30;;;;;;;16.48;3.92;;;22.80;93.00;23.30;101238.00;;;;4959963;28;99964;-69
2021/09/08 07:52:56;;;;;;;6.40;4.40;;;23.10;93.60;23.50;101240.00;;;;4951540;28;96832;-69
2021/09/08 07:55:22;;;;;;;5.57;3.47;;;23.10;93.20;23.70;101230.00;;;;4955000;28;110826;-69
2021/09/08 07:57:48;;;;;;;7.03;4.38;;;23.30;92.70;23.80;101231.00;;;;4954728;28;108808;-69
2021/09/08 08:00:14;;;;;;;6.13;4.38;;;23.50;91.70;23.90;101225.00;;;;4969278;28;113571;-69
2021/09/08 08:02:49;;;;;;;4.70;3.60;;;23.60;90.90;24.00;101236.00;;;;4958122;28;87837;-69
2021/09/08 08:05:15;;;;;;;7.22;4.40;;;24.00;91.40;24.20;101228.00;;;;4954258;28;87926;-70
2021/09/08 08:07:46;;;;;;;5.75;4.47;;;23.80;90.70;24.40;101230.00;;;;4956851;28;87112;-70
2021/09/08 08:10:15;;;;;;;6.45;3.92;;;24.00;90.40;24.60;101228.00;;;;4956693;28;89399;-69
2021/09/08 08:12:41;;;;;;;3.90;3.47;;;24.40;90.60;24.80;101231.00;;;;4959773;28;99479;-69
2021/09/08 08:15:08;;;;;;;9.77;4.22;;;24.40;90.10;25.10;101238.00;;;;4946349;28;110131;-69
2021/09/08 08:17:35;;;;;;;5.65;3.75;;;24.70;88.50;25.30;101236.00;;;;4957314;28;89530;-69
2021/09/08 08:20:01;;;;;;;5.93;4.07;;;25.00;87.40;25.50;101232.00;;;;4959816;28;90236;-70
2021/09/08 08:22:27;;;;;;;4.97;3.88;;;25.10;85.60;25.70;101241.00;;;;4953745;28;88207;-70
2021/09/08 08:24:52;;;;;;;7.45;4.00;;;25.40;85.60;26.00;101235.00;;;;4956473;28;87743;-70
2021/09/08 08:27:19;;;;;;;9.52;4.90;;;25.60;83.40;26.20;101238.00;;;;4956966;28;88134;-69
2021/09/08 08:29:44;;;;;;;4.72;3.53;;;25.90;82.60;26.40;101234.00;;;;4958066;28;88152;-68
2021/09/08 08:32:10;;;;;;;5.88;3.65;;;26.00;81.40;26.60;101236.00;;;;4953303;28;91034;-68
2021/09/08 08:34:36;;;;;;;6.43;4.38;;;26.10;80.30;26.80;101232.00;;;;4958528;28;111272;-68
2021/09/08 08:37:02;;;;;;;40.20;24.70;;;26.30;78.70;27.00;101227.00;;;;4954410;28;88027;-68
2021/09/08 08:39:28;;;;;;;23.95;14.20;;;26.60;77.10;27.10;101238.00;;;;4952234;28;89264;-69
2021/09/08 08:41:53;;;;;;;16.35;9.50;;;26.70;76.80;27.30;101234.00;;;;4951744;28;116515;-68
2021/09/08 08:44:25;;;;;;;8.73;6.22;;;26.90;74.80;27.50;101230.00;;;;4952165;28;113595;-70
2021/09/08 08:46:52;;;;;;;34.75;26.25;;;27.10;74.10;27.70;101234.00;;;;4953802;28;87493;-70
2021/09/08 08:49:20;;;;;;;14.90;11.00;;;27.30;72.50;27.90;101233.00;;;;4954917;28;88344;-68
2021/09/08 08:51:48;;;;;;;7.75;6.35;;;27.40;71.10;28.00;101228.00;;;;4960074;28;87840;-68
2021/09/08 08:54:14;;;;;;;7.82;5.35;;;27.60;69.10;28.10;101229.00;;;;4956770;28;88163;-69
2021/09/08 08:56:39;;;;;;;6.82;4.43;;;27.70;65.10;28.00;101227.00;;;;4954621;28;106806;-68
2021/09/08 08:59:05;;;;;;;10.07;5.10;;;27.70;65.60;28.10;101233.00;;;;4952841;28;117697;-69
2021/09/08 09:01:32;;;;;;;8.73;5.60;;;27.80;64.60;28.10;101234.00;;;;4952953;28;87964;-68
2021/09/08 09:04:18;;;;;;;5.32;4.82;;;27.70;64.20;28.20;101227.00;;;;4952389;28;88731;-68
2021/09/08 09:06:50;;;;;;;10.18;6.10;;;27.80;62.70;28.30;101231.00;;;;4937317;28;87814;-70
2021/09/08 09:09:18;;;;;;;6.93;5.07;;;27.80;62.00;28.30;101233.00;;;;4952717;28;87955;-69
2021/09/08 09:11:49;;;;;;;9.07;5.13;;;27.90;62.20;28.40;101229.00;;;;4953096;28;88549;-70
2021/09/08 09:14:18;;;;;;;7.85;5.25;;;28.00;60.10;28.40;101236.00;;;;4933972;28;87990;-68
2021/09/08 09:16:46;;;;;;;4.90;4.38;;;28.00;60.30;28.40;101229.00;;;;4952805;28;87651;-68
2021/09/08 09:19:13;;;;;;;9.75;3.83;;;28.00;61.20;28.60;101228.00;;;;4952020;28;88214;-68
2021/09/08 09:21:40;;;;;;;6.00;4.10;;;28.20;61.70;28.80;101226.00;;;;4960516;28;88360;-69
2021/09/08 09:24:08;;;;;;;5.25;4.68;;;28.30;61.20;29.00;101218.00;;;;4952480;28;87557;-69
2021/09/08 09:26:37;;;;;;;4.43;3.75;;;28.50;60.10;29.30;101213.00;;;;4952103;28;93680;-68
2021/09/08 09:29:18;;;;;;;7.03;3.95;;;28.70;59.70;29.50;101216.00;;;;4934222;28;89484;-70
2021/09/08 09:31:52;;;;;;;4.78;4.03;;;28.90;58.80;29.80;101215.00;;;;4953006;28;88477;-69
2021/09/08 09:34:19;;;;;;;6.20;3.63;;;29.20;58.40;30.00;101209.00;;;;4951951;28;87846;-69
2021/09/08 09:36:45;;;;;;;8.27;5.43;;;29.40;57.70;30.20;101203.00;;;;4955780;28;87681;-68
2021/09/08 09:39:11;;;;;;;6.32;4.25;;;29.60;57.30;30.40;101206.00;;;;4956049;28;88470;-69
2021/09/08 09:41:37;;;;;;;6.20;4.43;;;29.80;56.20;30.60;101198.00;;;;4952651;28;87740;-69
2021/09/08 09:44:14;;;;;;;5.40;3.40;;;30.00;53.40;30.40;101196.00;;;;4961344;28;87966;-69
2021/09/08 09:46:43;;;;;;;6.97;4.18;;;29.90;52.70;30.20;101189.00;;;;4955705;28;87106;-70
2021/09/08 09:49:14;;;;;;;5.97;3.65;;;29.70;52.90;30.30;101183.00;;;;4955787;28;89170;-68
2021/09/08 09:51:41;;;;;;;5.93;3.72;;;29.70;53.00;30.20;101181.00;;;;4940418;28;89792;-68
2021/09/08 09:54:07;;;;;;;4.15;3.28;;;29.70;52.80;30.30;101183.00;;;;4956931;28;88775;-71
2021/09/08 09:56:32;;;;;;;5.53;4.18;;;29.70;53.10;30.30;101179.00;;;;4956405;28;88033;-69
2021/09/08 09:58:59;;;;;;;7.10;3.95;;;29.60;51.10;30.30;101181.00;;;;4954288;28;118035;-69
2021/09/08 10:01:25;;;;;;;11.75;4.07;;;29.60;52.10;30.40;101177.00;;;;4955733;28;88184;-69
2021/09/08 10:03:52;;;;;;;5.40;3.55;;;29.70;51.40;30.60;101182.00;;;;4955579;28;87832;-68
2021/09/08 10:06:18;;;;;;;5.10;3.97;;;29.80;52.20;30.60;101171.00;;;;4955648;28;87530;-69
2021/09/08 10:08:49;;;;;;;5.18;3.47;;;29.80;49.90;30.50;101163.00;;;;4962068;28;88086;-68
2021/09/08 10:11:23;;;;;;;5.53;4.03;;;29.80;50.10;30.20;101162.00;;;;4955899;28;88288;-68
2021/09/08 10:14:02;;;;;;;6.07;3.58;;;29.60;50.00;29.80;101161.00;;;;4956806;28;87855;-69
2021/09/08 10:16:28;;;;;;;4.47;3.20;;;29.40;49.70;29.70;101156.00;;;;4956885;28;87908;-68
2021/09/08 10:18:54;;;;;;;5.85;3.40;;;29.20;50.40;29.70;101158.00;;;;4956776;28;89049;-69
2021/09/08 10:21:21;;;;;;;6.75;3.42;;;29.10;50.80;29.70;101150.00;;;;4957178;28;118446;-70
2021/09/08 10:23:59;;;;;;;5.60;3.75;;;29.00;51.30;29.90;101150.00;;;;4958038;28;87884;-69
2021/09/08 10:26:28;;;;;;;5.20;4.15;;;29.20;51.20;30.00;101155.00;;;;4953793;28;87624;-69
2021/09/08 10:28:58;;;;;;;5.45;3.47;;;29.30;50.80;29.70;101147.00;;;;4964036;28;89124;-69
2021/09/08 10:31:25;;;;;;;6.15;3.78;;;29.20;50.40;29.60;101146.00;;;;4954724;28;87718;-70
2021/09/08 10:33:56;;;;;;;5.68;3.78;;;29.10;51.10;29.70;101140.00;;;;4961342;28;87816;-69
2021/09/08 10:36:22;;;;;;;5.40;3.45;;;29.10;51.10;30.00;101138.00;;;;4957360;28;87155;-69
2021/09/08 10:39:09;;;;;;;5.50;3.15;;;29.20;51.60;30.30;101136.00;;;;4955916;28;117843;-69
2021/09/08 10:41:47;;;;;;;4.03;2.67;;;29.50;50.50;30.50;101136.00;;;;4955386;28;88016;-71